sensor_id;sensor_type;location;lat;lon;timestamp;pressure;altitude;pressure_sealevel;temperature;humidity
42601;BME280;28229;48.856;9.088;2023-07-13T00:00:52;97927.47;;;19.31;57.19
42601;BME280;28229;48.856;9.088;2023-07-13T00:03:19;97925.34;;;19.28;56.98
42601;BME280;28229;48.856;9.088;2023-07-13T00:05:45;97930.41;;;19.24;56.69
42601;BME280;28229;48.856;9.088;2023-07-13T00:08:11;97924.03;;;19.20;57.27
42601;BME280;28229;48.856;9.088;2023-07-13T00:10:41;97930.16;;;19.20;56.66
42601;BME280;28229;48.856;9.088;2023-07-13T00:13:08;97927.25;;;19.17;56.97
42601;BME280;28229;48.856;9.088;2023-07-13T00:15:35;97925.13;;;19.14;57.34
42601;BME280;28229;48.856;9.088;2023-07-13T00:18:01;97926.19;;;19.18;57.32
42601;BME280;28229;48.856;9.088;2023-07-13T00:20:28;97925.13;;;19.14;56.78
42601;BME280;28229;48.856;9.088;2023-07-13T00:22:54;97920.31;;;19.11;57.38
42601;BME280;28229;48.856;9.088;2023-07-13T00:25:21;97924.88;;;19.10;57.33
42601;BME280;28229;48.856;9.088;2023-07-13T00:27:50;97920.91;;;19.08;56.57
42601;BME280;28229;48.856;9.088;2023-07-13T00:30:17;97916.63;;;19.01;56.56
42601;BME280;28229;48.856;9.088;2023-07-13T00:32:44;97916.63;;;19.01;56.69
42601;BME280;28229;48.856;9.088;2023-07-13T00:35:12;97913.44;;;18.99;56.66
42601;BME280;28229;48.856;9.088;2023-07-13T00:37:39;97911.88;;;18.93;56.39
42601;BME280;28229;48.856;9.088;2023-07-13T00:40:06;97898.81;;;18.92;56.73
42601;BME280;28229;48.856;9.088;2023-07-13T00:42:33;97906.56;;;18.88;56.01
42601;BME280;28229;48.856;9.088;2023-07-13T00:47:39;97902.84;;;18.79;56.30
42601;BME280;28229;48.856;9.088;2023-07-13T00:50:09;97900.72;;;18.76;56.09
42601;BME280;28229;48.856;9.088;2023-07-13T00:52:38;97903.38;;;18.76;55.81
42601;BME280;28229;48.856;9.088;2023-07-13T00:55:07;97903.13;;;18.72;55.58
42601;BME280;28229;48.856;9.088;2023-07-13T00:57:35;97902.06;;;18.68;55.13
42601;BME280;28229;48.856;9.088;2023-07-13T01:00:04;97896.75;;;18.68;55.34
42601;BME280;28229;48.856;9.088;2023-07-13T01:02:37;97898.84;;;18.66;55.12
42601;BME280;28229;48.856;9.088;2023-07-13T01:05:09;97907.13;;;18.64;55.49
42601;BME280;28229;48.856;9.088;2023-07-13T01:07:36;97902.88;;;18.58;55.63
42601;BME280;28229;48.856;9.088;2023-07-13T01:10:03;97912.47;;;18.54;56.27
42601;BME280;28229;48.856;9.088;2023-07-13T01:12:30;97900.75;;;18.50;55.86
42601;BME280;28229;48.856;9.088;2023-07-13T01:14:58;97906.63;;;18.47;55.90
42601;BME280;28229;48.856;9.088;2023-07-13T01:17:24;97906.13;;;18.40;56.30
42601;BME280;28229;48.856;9.088;2023-07-13T01:19:50;97900.53;;;18.36;56.27
42601;BME280;28229;48.856;9.088;2023-07-13T01:22:18;97906.13;;;18.35;56.26
42601;BME280;28229;48.856;9.088;2023-07-13T01:24:47;97907.16;;;18.34;56.45
42601;BME280;28229;48.856;9.088;2023-07-13T01:27:19;97905.59;;;18.33;56.74
42601;BME280;28229;48.856;9.088;2023-07-13T01:29:46;97906.66;;;18.26;56.74
42601;BME280;28229;48.856;9.088;2023-07-13T01:32:16;97912.50;;;18.23;56.69
42601;BME280;28229;48.856;9.088;2023-07-13T01:34:43;97913.06;;;18.25;57.29
42601;BME280;28229;48.856;9.088;2023-07-13T01:37:11;97912.78;;;18.27;57.65
42601;BME280;28229;48.856;9.088;2023-07-13T01:39:37;97920.22;;;18.25;58.54
42601;BME280;28229;48.856;9.088;2023-07-13T01:42:04;97914.09;;;18.14;57.51
42601;BME280;28229;48.856;9.088;2023-07-13T01:44:30;97923.69;;;18.20;57.43
42601;BME280;28229;48.856;9.088;2023-07-13T01:46:57;97923.97;;;18.14;57.12
42601;BME280;28229;48.856;9.088;2023-07-13T01:49:23;97927.97;;;18.11;58.28
42601;BME280;28229;48.856;9.088;2023-07-13T01:51:50;97929.03;;;18.15;57.87
42601;BME280;28229;48.856;9.088;2023-07-13T01:54:16;97931.16;;;18.18;57.80
42601;BME280;28229;48.856;9.088;2023-07-13T01:56:43;97928.22;;;18.10;57.71
42601;BME280;28229;48.856;9.088;2023-07-13T01:59:09;97936.47;;;17.98;58.26
42601;BME280;28229;48.856;9.088;2023-07-13T02:01:36;97935.94;;;17.96;59.42
42601;BME280;28229;48.856;9.088;2023-07-13T02:04:02;97936.44;;;17.87;59.40
42601;BME280;28229;48.856;9.088;2023-07-13T02:06:33;97931.13;;;17.87;59.56
42601;BME280;28229;48.856;9.088;2023-07-13T02:08:59;97941.25;;;17.91;59.53
42601;BME280;28229;48.856;9.088;2023-07-13T02:11:26;97945.78;;;17.90;59.84
42601;BME280;28229;48.856;9.088;2023-07-13T02:14:00;97945.22;;;17.93;60.03
42601;BME280;28229;48.856;9.088;2023-07-13T02:16:29;97946.06;;;17.94;59.96
42601;BME280;28229;48.856;9.088;2023-07-13T02:18:56;97948.19;;;17.97;60.41
42601;BME280;28229;48.856;9.088;2023-07-13T02:21:23;97950.03;;;17.91;61.23
42601;BME280;28229;48.856;9.088;2023-07-13T02:23:51;97947.06;;;17.82;62.63
42601;BME280;28229;48.856;9.088;2023-07-13T02:26:19;97948.91;;;17.82;62.68
42601;BME280;28229;48.856;9.088;2023-07-13T02:28:45;97945.97;;;17.68;61.59
42601;BME280;28229;48.856;9.088;2023-07-13T02:31:13;97947.56;;;17.64;62.66
42601;BME280;28229;48.856;9.088;2023-07-13T02:33:40;97952.59;;;17.60;62.87
42601;BME280;28229;48.856;9.088;2023-07-13T02:36:07;97957.63;;;17.51;62.80
42601;BME280;28229;48.856;9.088;2023-07-13T02:38:35;97951.25;;;17.53;62.75
42601;BME280;28229;48.856;9.088;2023-07-13T02:41:04;97954.44;;;17.49;62.47
42601;BME280;28229;48.856;9.088;2023-07-13T02:43:30;97957.09;;;17.49;62.94
42601;BME280;28229;48.856;9.088;2023-07-13T02:45:56;97957.09;;;17.49;63.27
42601;BME280;28229;48.856;9.088;2023-07-13T02:48:26;97958.16;;;17.48;63.63
42601;BME280;28229;48.856;9.088;2023-07-13T02:50:53;97959.75;;;17.44;63.17
42601;BME280;28229;48.856;9.088;2023-07-13T02:53:20;97967.19;;;17.42;63.90
42601;BME280;28229;48.856;9.088;2023-07-13T02:55:46;97964.00;;;17.40;64.19
42601;BME280;28229;48.856;9.088;2023-07-13T02:58:13;97965.00;;;17.34;63.91
42601;BME280;28229;48.856;9.088;2023-07-13T03:00:44;97969.25;;;17.30;64.03
42601;BME280;28229;48.856;9.088;2023-07-13T03:03:15;97968.19;;;17.26;64.96
42601;BME280;28229;48.856;9.088;2023-07-13T03:05:44;97956.47;;;17.27;64.75
42601;BME280;28229;48.856;9.088;2023-07-13T03:08:12;97965.78;;;17.24;65.19
42601;BME280;28229;48.856;9.088;2023-07-13T03:10:39;97968.41;;;17.19;65.66
42601;BME280;28229;48.856;9.088;2023-07-13T03:13:11;97966.53;;;17.15;65.94
42601;BME280;28229;48.856;9.088;2023-07-13T03:15:38;97968.66;;;17.12;65.68
42601;BME280;28229;48.856;9.088;2023-07-13T03:18:05;97974.50;;;17.09;66.19
42601;BME280;28229;48.856;9.088;2023-07-13T03:20:33;97975.53;;;17.08;65.93
42601;BME280;28229;48.856;9.088;2023-07-13T03:23:01;97976.38;;;17.14;66.31
42601;BME280;28229;48.856;9.088;2023-07-13T03:25:39;97977.41;;;17.08;65.75
42601;BME280;28229;48.856;9.088;2023-07-13T03:28:05;97975.00;;;17.06;66.55
42601;BME280;28229;48.856;9.088;2023-07-13T03:30:33;97988.25;;;17.01;66.42
42601;BME280;28229;48.856;9.088;2023-07-13T03:32:59;97986.38;;;16.97;66.87
42601;BME280;28229;48.856;9.088;2023-07-13T03:35:26;97983.38;;;16.88;67.09
42601;BME280;28229;48.856;9.088;2023-07-13T03:37:53;98000.44;;;16.92;67.19
42601;BME280;28229;48.856;9.088;2023-07-13T03:40:21;97993.22;;;16.87;67.30
42601;BME280;28229;48.856;9.088;2023-07-13T03:42:47;97997.75;;;16.87;66.92
42601;BME280;28229;48.856;9.088;2023-07-13T03:45:16;98012.63;;;16.88;67.06
42601;BME280;28229;48.856;9.088;2023-07-13T03:47:42;98020.31;;;16.84;67.11
42601;BME280;28229;48.856;9.088;2023-07-13T03:50:09;98016.28;;;16.82;66.85
42601;BME280;28229;48.856;9.088;2023-07-13T03:52:35;98018.22;;;16.86;64.40
42601;BME280;28229;48.856;9.088;2023-07-13T03:55:02;98021.59;;;16.82;65.51
42601;BME280;28229;48.856;9.088;2023-07-13T03:57:28;98020.59;;;16.88;66.08
42601;BME280;28229;48.856;9.088;2023-07-13T03:59:56;98027.53;;;16.89;65.31
42601;BME280;28229;48.856;9.088;2023-07-13T04:02:22;98026.72;;;16.88;65.82
42601;BME280;28229;48.856;9.088;2023-07-13T04:04:48;98019.97;;;16.81;65.55
42601;BME280;28229;48.856;9.088;2023-07-13T04:07:15;98021.31;;;16.78;65.95
42601;BME280;28229;48.856;9.088;2023-07-13T04:09:41;98022.38;;;16.82;66.59
42601;BME280;28229;48.856;9.088;2023-07-13T04:12:07;98022.91;;;16.79;67.43
42601;BME280;28229;48.856;9.088;2023-07-13T04:14:33;98026.88;;;16.77;68.38
42601;BME280;28229;48.856;9.088;2023-07-13T04:17:00;98025.81;;;16.78;68.17
42601;BME280;28229;48.856;9.088;2023-07-13T04:19:27;98022.63;;;16.75;68.67
42601;BME280;28229;48.856;9.088;2023-07-13T04:21:53;98026.00;;;16.66;69.22
42601;BME280;28229;48.856;9.088;2023-07-13T04:24:19;98022.75;;;16.59;69.75
42601;BME280;28229;48.856;9.088;2023-07-13T04:26:45;98025.69;;;16.62;69.25
42601;BME280;28229;48.856;9.088;2023-07-13T04:29:12;98026.75;;;16.61;67.72
42601;BME280;28229;48.856;9.088;2023-07-13T04:31:38;98039.47;;;16.59;68.86
42601;BME280;28229;48.856;9.088;2023-07-13T04:34:04;98033.28;;;16.48;68.35
42601;BME280;28229;48.856;9.088;2023-07-13T04:36:31;98027.78;;;16.55;69.00
42601;BME280;28229;48.856;9.088;2023-07-13T04:38:57;98029.28;;;16.46;69.10
42601;BME280;28229;48.856;9.088;2023-07-13T04:41:23;98034.31;;;16.42;69.72
42601;BME280;28229;48.856;9.088;2023-07-13T04:43:50;98030.53;;;16.33;70.06
42601;BME280;28229;48.856;9.088;2023-07-13T04:46:17;98034.50;;;16.35;70.38
42601;BME280;28229;48.856;9.088;2023-07-13T04:48:44;98036.91;;;16.37;70.77
42601;BME280;28229;48.856;9.088;2023-07-13T04:51:11;98038.22;;;16.34;71.32
42601;BME280;28229;48.856;9.088;2023-07-13T04:53:37;98036.63;;;16.33;70.99
42601;BME280;28229;48.856;9.088;2023-07-13T04:56:04;98041.13;;;16.33;70.84
42601;BME280;28229;48.856;9.088;2023-07-13T04:58:30;98041.69;;;16.35;69.97
42601;BME280;28229;48.856;9.088;2023-07-13T05:01:01;98039.81;;;16.35;71.07
42601;BME280;28229;48.856;9.088;2023-07-13T05:03:28;98041.97;;;16.39;70.09
42601;BME280;28229;48.856;9.088;2023-07-13T05:06:00;98042.72;;;16.34;71.20
42601;BME280;28229;48.856;9.088;2023-07-13T05:08:27;98043.31;;;16.41;70.46
42601;BME280;28229;48.856;9.088;2023-07-13T05:10:53;98043.63;;;16.45;71.60
42601;BME280;28229;48.856;9.088;2023-07-13T05:13:19;98041.00;;;16.50;71.17
42601;BME280;28229;48.856;9.088;2023-07-13T05:15:47;98040.50;;;16.53;71.08
42601;BME280;28229;48.856;9.088;2023-07-13T05:18:13;98041.09;;;16.60;69.82
42601;BME280;28229;48.856;9.088;2023-07-13T05:20:40;98051.47;;;16.62;70.28
42601;BME280;28229;48.856;9.088;2023-07-13T05:23:06;98049.69;;;16.72;69.95
42601;BME280;28229;48.856;9.088;2023-07-13T05:25:32;98054.81;;;16.79;69.78
42601;BME280;28229;48.856;9.088;2023-07-13T05:27:58;98051.84;;;16.75;68.87
42601;BME280;28229;48.856;9.088;2023-07-13T05:30:25;98051.94;;;16.86;68.76
42601;BME280;28229;48.856;9.088;2023-07-13T05:32:51;98059.44;;;16.94;70.98
42601;BME280;28229;48.856;9.088;2023-07-13T05:35:18;98053.63;;;16.97;70.49
42601;BME280;28229;48.856;9.088;2023-07-13T05:37:44;98048.88;;;17.04;70.04
42601;BME280;28229;48.856;9.088;2023-07-13T05:40:10;98055.53;;;17.07;70.29
42601;BME280;28229;48.856;9.088;2023-07-13T05:42:37;98052.69;;;17.19;71.62
42601;BME280;28229;48.856;9.088;2023-07-13T05:45:03;98045.25;;;17.21;71.24
42601;BME280;28229;48.856;9.088;2023-07-13T05:47:30;98050.06;;;17.29;70.84
42601;BME280;28229;48.856;9.088;2023-07-13T05:49:56;98057.53;;;17.32;70.93
42601;BME280;28229;48.856;9.088;2023-07-13T05:52:22;98060.75;;;17.34;68.83
42601;BME280;28229;48.856;9.088;2023-07-13T05:54:48;98070.88;;;17.37;70.52
42601;BME280;28229;48.856;9.088;2023-07-13T05:57:15;98069.84;;;17.43;69.65
42601;BME280;28229;48.856;9.088;2023-07-13T05:59:41;98069.88;;;17.54;70.05
42601;BME280;28229;48.856;9.088;2023-07-13T06:02:09;98060.63;;;17.72;69.37
42601;BME280;28229;48.856;9.088;2023-07-13T06:04:36;98068.16;;;17.85;69.39
42601;BME280;28229;48.856;9.088;2023-07-13T06:07:03;98069.28;;;17.99;68.60
42601;BME280;28229;48.856;9.088;2023-07-13T06:09:29;98077.59;;;18.13;65.88
42601;BME280;28229;48.856;9.088;2023-07-13T06:11:55;98082.41;;;18.32;64.99
42601;BME280;28229;48.856;9.088;2023-07-13T06:14:21;98084.03;;;18.38;62.49
42601;BME280;28229;48.856;9.088;2023-07-13T06:16:47;98082.94;;;18.34;64.34
42601;BME280;28229;48.856;9.088;2023-07-13T06:19:13;98092.28;;;18.41;63.98
42601;BME280;28229;48.856;9.088;2023-07-13T06:21:40;98087.22;;;18.50;60.92
42601;BME280;28229;48.856;9.088;2023-07-13T06:24:06;98093.13;;;18.57;58.84
42601;BME280;28229;48.856;9.088;2023-07-13T06:26:32;98096.31;;;18.64;60.27
42601;BME280;28229;48.856;9.088;2023-07-13T06:28:58;98096.84;;;18.77;60.06
42601;BME280;28229;48.856;9.088;2023-07-13T06:31:24;98100.06;;;18.89;60.64
42601;BME280;28229;48.856;9.088;2023-07-13T06:33:50;98101.94;;;19.04;59.22
42601;BME280;28229;48.856;9.088;2023-07-13T06:36:16;98107.53;;;19.18;58.15
42601;BME280;28229;48.856;9.088;2023-07-13T06:38:43;98101.34;;;19.38;57.44
42601;BME280;28229;48.856;9.088;2023-07-13T06:41:09;98103.16;;;19.58;54.11
42601;BME280;28229;48.856;9.088;2023-07-13T06:43:35;98111.16;;;19.68;52.99
42601;BME280;28229;48.856;9.088;2023-07-13T06:46:01;98115.41;;;19.80;52.01
42601;BME280;28229;48.856;9.088;2023-07-13T06:48:30;98114.25;;;20.01;50.75
42601;BME280;28229;48.856;9.088;2023-07-13T06:50:56;98118.53;;;20.02;49.22
42601;BME280;28229;48.856;9.088;2023-07-13T06:53:23;98128.63;;;20.05;49.92
42601;BME280;28229;48.856;9.088;2023-07-13T06:55:49;98127.03;;;20.09;48.78
42601;BME280;28229;48.856;9.088;2023-07-13T06:58:19;98127.00;;;20.14;48.63
42601;BME280;28229;48.856;9.088;2023-07-13T07:00:45;98123.78;;;20.17;48.62
42601;BME280;28229;48.856;9.088;2023-07-13T07:03:12;98130.75;;;20.13;48.22
42601;BME280;28229;48.856;9.088;2023-07-13T07:05:38;98131.84;;;20.07;47.13
42601;BME280;28229;48.856;9.088;2023-07-13T07:08:04;98127.56;;;20.11;47.66
42601;BME280;28229;48.856;9.088;2023-07-13T07:10:31;98134.69;;;20.26;47.76
42601;BME280;28229;48.856;9.088;2023-07-13T07:12:57;98127.34;;;20.47;45.72
42601;BME280;28229;48.856;9.088;2023-07-13T07:15:23;98126.47;;;20.62;45.73
42601;BME280;28229;48.856;9.088;2023-07-13T07:17:49;98131.75;;;20.72;46.02
42601;BME280;28229;48.856;9.088;2023-07-13T07:20:16;98139.94;;;20.86;45.30
42601;BME280;28229;48.856;9.088;2023-07-13T07:22:42;98133.38;;;21.03;45.79
42601;BME280;28229;48.856;9.088;2023-07-13T07:25:08;98139.69;;;21.17;44.39
42601;BME280;28229;48.856;9.088;2023-07-13T07:27:36;98132.03;;;21.35;44.01
42601;BME280;28229;48.856;9.088;2023-07-13T07:30:03;98140.22;;;21.48;43.70
42601;BME280;28229;48.856;9.088;2023-07-13T07:32:30;98132.03;;;21.64;44.26
42601;BME280;28229;48.856;9.088;2023-07-13T07:34:57;98131.34;;;21.77;44.03
42601;BME280;28229;48.856;9.088;2023-07-13T07:37:24;98140.00;;;21.93;44.22
42601;BME280;28229;48.856;9.088;2023-07-13T07:39:50;98129.03;;;22.14;42.36
42601;BME280;28229;48.856;9.088;2023-07-13T07:42:16;98131.03;;;22.27;41.31
42601;BME280;28229;48.856;9.088;2023-07-13T07:44:43;98129.28;;;22.36;41.65
42601;BME280;28229;48.856;9.088;2023-07-13T07:47:09;98136.19;;;22.42;41.51
42601;BME280;28229;48.856;9.088;2023-07-13T07:49:36;98135.66;;;22.59;42.36
42601;BME280;28229;48.856;9.088;2023-07-13T07:52:02;98137.91;;;22.71;41.53
42601;BME280;28229;48.856;9.088;2023-07-13T07:54:29;98134.97;;;22.87;40.23
42601;BME280;28229;48.856;9.088;2023-07-13T07:56:55;98129.47;;;22.97;39.59
42601;BME280;28229;48.856;9.088;2023-07-13T07:59:21;98130.91;;;23.08;39.13
42601;BME280;28229;48.856;9.088;2023-07-13T08:01:47;98135.69;;;23.11;39.68
42601;BME280;28229;48.856;9.088;2023-07-13T08:04:16;98130.31;;;23.11;37.90
42601;BME280;28229;48.856;9.088;2023-07-13T08:06:42;98142.06;;;23.15;38.42
42601;BME280;28229;48.856;9.088;2023-07-13T08:09:09;98143.69;;;23.30;38.22
42601;BME280;28229;48.856;9.088;2023-07-13T08:11:35;98143.09;;;23.47;37.86
42601;BME280;28229;48.856;9.088;2023-07-13T08:14:01;98143.50;;;23.54;36.72
42601;BME280;28229;48.856;9.088;2023-07-13T08:16:28;98141.34;;;23.56;37.51
42601;BME280;28229;48.856;9.088;2023-07-13T08:18:54;98138.16;;;23.68;36.91
42601;BME280;28229;48.856;9.088;2023-07-13T08:21:20;98141.03;;;23.72;36.66
42601;BME280;28229;48.856;9.088;2023-07-13T08:23:47;98141.13;;;23.67;36.27
42601;BME280;28229;48.856;9.088;2023-07-13T08:26:13;98145.75;;;23.80;36.37
42601;BME280;28229;48.856;9.088;2023-07-13T08:28:41;98136.19;;;24.02;36.01
42601;BME280;28229;48.856;9.088;2023-07-13T08:31:07;98145.25;;;24.06;36.89
42601;BME280;28229;48.856;9.088;2023-07-13T08:33:35;98145.72;;;24.22;36.84
42601;BME280;28229;48.856;9.088;2023-07-13T08:36:02;98140.69;;;24.43;36.33
42601;BME280;28229;48.856;9.088;2023-07-13T08:38:28;98138.50;;;24.45;35.46
42601;BME280;28229;48.856;9.088;2023-07-13T08:40:56;98129.16;;;24.42;35.43
42601;BME280;28229;48.856;9.088;2023-07-13T08:43:29;98136.31;;;24.33;34.97
42601;BME280;28229;48.856;9.088;2023-07-13T08:46:09;98143.69;;;24.55;35.09
42601;BME280;28229;48.856;9.088;2023-07-13T08:48:48;98143.94;;;24.67;35.32
42601;BME280;28229;48.856;9.088;2023-07-13T08:54:04;98146.78;;;25.16;33.44
42601;BME280;28229;48.856;9.088;2023-07-13T08:56:32;98153.59;;;25.36;34.03
42601;BME280;28229;48.856;9.088;2023-07-13T08:59:16;98138.13;;;25.42;34.21
42601;BME280;28229;48.856;9.088;2023-07-13T09:04:50;98147.63;;;25.79;33.12
42601;BME280;28229;48.856;9.088;2023-07-13T09:07:57;98146.69;;;25.93;32.96
42601;BME280;28229;48.856;9.088;2023-07-13T09:10:30;98147.75;;;25.74;32.42
42601;BME280;28229;48.856;9.088;2023-07-13T09:13:01;98147.38;;;25.58;33.07
42601;BME280;28229;48.856;9.088;2023-07-13T09:15:38;98146.06;;;25.56;32.66
42601;BME280;28229;48.856;9.088;2023-07-13T09:20:57;98153.69;;;25.54;33.36
42601;BME280;28229;48.856;9.088;2023-07-13T09:23:28;98160.44;;;25.20;34.46
42601;BME280;28229;48.856;9.088;2023-07-13T09:26:01;98155.75;;;25.57;33.50
42601;BME280;28229;48.856;9.088;2023-07-13T09:28:34;98148.84;;;25.73;33.34
42601;BME280;28229;48.856;9.088;2023-07-13T09:33:58;98155.09;;;25.91;33.39
42601;BME280;28229;48.856;9.088;2023-07-13T09:36:32;98158.56;;;25.92;33.08
42601;BME280;28229;48.856;9.088;2023-07-13T09:39:14;98148.31;;;25.94;33.45
42601;BME280;28229;48.856;9.088;2023-07-13T09:44:33;98145.31;;;25.64;33.78
42601;BME280;28229;48.856;9.088;2023-07-13T09:47:00;98145.06;;;25.74;34.22
42601;BME280;28229;48.856;9.088;2023-07-13T09:49:27;98143.88;;;25.98;33.83
42601;BME280;28229;48.856;9.088;2023-07-13T09:52:06;98143.47;;;25.73;32.29
42601;BME280;28229;48.856;9.088;2023-07-13T09:54:34;98137.09;;;25.69;33.61
42601;BME280;28229;48.856;9.088;2023-07-13T09:57:08;98151.06;;;25.71;32.88
42601;BME280;28229;48.856;9.088;2023-07-13T09:59:41;98142.38;;;25.74;32.87
42601;BME280;28229;48.856;9.088;2023-07-13T10:02:31;98141.81;;;25.95;33.29
42601;BME280;28229;48.856;9.088;2023-07-13T10:05:06;98139.47;;;26.19;31.81
42601;BME280;28229;48.856;9.088;2023-07-13T10:07:38;98138.41;;;26.29;32.16
42601;BME280;28229;48.856;9.088;2023-07-13T10:10:17;98137.25;;;26.21;32.45
42601;BME280;28229;48.856;9.088;2023-07-13T10:12:44;98142.22;;;26.37;31.68
42601;BME280;28229;48.856;9.088;2023-07-13T10:15:16;98146.97;;;26.57;31.86
42601;BME280;28229;48.856;9.088;2023-07-13T10:17:43;98130.16;;;26.78;31.24
42601;BME280;28229;48.856;9.088;2023-07-13T10:20:10;98135.72;;;26.82;30.95
42601;BME280;28229;48.856;9.088;2023-07-13T10:22:45;98135.41;;;26.83;31.12
42601;BME280;28229;48.856;9.088;2023-07-13T10:25:19;98136.19;;;27.01;31.75
42601;BME280;28229;48.856;9.088;2023-07-13T10:27:49;98135.03;;;27.11;31.59
42601;BME280;28229;48.856;9.088;2023-07-13T10:30:32;98136.03;;;26.71;30.95
42601;BME280;28229;48.856;9.088;2023-07-13T10:33:10;98139.06;;;26.70;31.38
42601;BME280;28229;48.856;9.088;2023-07-13T10:35:39;98140.19;;;26.69;31.55
42601;BME280;28229;48.856;9.088;2023-07-13T10:38:11;98133.47;;;26.57;30.68
42601;BME280;28229;48.856;9.088;2023-07-13T10:40:41;98143.94;;;26.41;31.72
42601;BME280;28229;48.856;9.088;2023-07-13T10:43:18;98140.81;;;26.66;30.62
42601;BME280;28229;48.856;9.088;2023-07-13T10:45:47;98139.69;;;26.75;30.94
42601;BME280;28229;48.856;9.088;2023-07-13T10:48:16;98141.59;;;26.40;30.85
42601;BME280;28229;48.856;9.088;2023-07-13T10:50:45;98143.59;;;26.26;31.21
42601;BME280;28229;48.856;9.088;2023-07-13T10:53:40;98141.25;;;26.33;31.75
42601;BME280;28229;48.856;9.088;2023-07-13T10:56:22;98141.88;;;26.30;31.67
42601;BME280;28229;48.856;9.088;2023-07-13T11:04:20;98139.53;;;26.54;31.14
42601;BME280;28229;48.856;9.088;2023-07-13T11:06:48;98133.47;;;26.23;30.58
42601;BME280;28229;48.856;9.088;2023-07-13T11:11:56;98128.72;;;26.37;30.68
42601;BME280;28229;48.856;9.088;2023-07-13T11:15:05;98118.56;;;26.60;30.34
42601;BME280;28229;48.856;9.088;2023-07-13T11:17:50;98115.28;;;26.63;29.81
42601;BME280;28229;48.856;9.088;2023-07-13T11:23:07;98106.00;;;27.08;28.97
42601;BME280;28229;48.856;9.088;2023-07-13T11:25:35;98100.06;;;27.23;29.11
42601;BME280;28229;48.856;9.088;2023-07-13T11:35:35;98104.00;;;27.73;28.00
42601;BME280;28229;48.856;9.088;2023-07-13T11:38:02;98100.88;;;27.62;28.18
42601;BME280;28229;48.856;9.088;2023-07-13T11:40:34;98095.19;;;27.55;28.75
42601;BME280;28229;48.856;9.088;2023-07-13T11:43:01;98096.22;;;27.42;29.48
42601;BME280;28229;48.856;9.088;2023-07-13T11:45:27;98100.44;;;27.51;29.44
42601;BME280;28229;48.856;9.088;2023-07-13T11:47:54;98107.84;;;27.16;28.42
42601;BME280;28229;48.856;9.088;2023-07-13T11:50:23;98099.59;;;27.12;27.97
42601;BME280;28229;48.856;9.088;2023-07-13T11:52:52;98101.34;;;27.17;28.62
42601;BME280;28229;48.856;9.088;2023-07-13T11:55:21;98113.25;;;27.33;29.06
42601;BME280;28229;48.856;9.088;2023-07-13T11:57:56;98106.50;;;27.48;28.77
42601;BME280;28229;48.856;9.088;2023-07-13T12:00:28;98111.69;;;27.62;27.79
42601;BME280;28229;48.856;9.088;2023-07-13T12:02:57;98108.06;;;27.58;27.76
42601;BME280;28229;48.856;9.088;2023-07-13T12:05:26;98120.78;;;27.58;28.28
42601;BME280;28229;48.856;9.088;2023-07-13T12:07:52;98104.09;;;27.94;27.18
42601;BME280;28229;48.856;9.088;2023-07-13T12:10:26;98104.16;;;28.06;27.77
42601;BME280;28229;48.856;9.088;2023-07-13T12:13:01;98107.19;;;28.05;26.79
42601;BME280;28229;48.856;9.088;2023-07-13T12:18:19;98101.13;;;28.71;26.54
42601;BME280;28229;48.856;9.088;2023-07-13T12:20:47;98105.16;;;28.98;26.33
42601;BME280;28229;48.856;9.088;2023-07-13T12:23:29;98112.38;;;29.40;27.36
42601;BME280;28229;48.856;9.088;2023-07-13T12:25:58;98110.56;;;29.44;25.86
42601;BME280;28229;48.856;9.088;2023-07-13T12:28:40;98110.22;;;29.33;25.23
42601;BME280;28229;48.856;9.088;2023-07-13T12:34:09;98120.47;;;29.15;26.01
42601;BME280;28229;48.856;9.088;2023-07-13T12:36:45;98109.25;;;28.71;26.04
42601;BME280;28229;48.856;9.088;2023-07-13T12:39:15;98111.56;;;28.60;25.91
42601;BME280;28229;48.856;9.088;2023-07-13T12:41:42;98110.13;;;28.63;26.34
42601;BME280;28229;48.856;9.088;2023-07-13T12:44:12;98109.41;;;28.87;26.71
42601;BME280;28229;48.856;9.088;2023-07-13T12:46:39;98101.56;;;29.07;24.52
42601;BME280;28229;48.856;9.088;2023-07-13T12:49:07;98092.19;;;28.92;25.90
42601;BME280;28229;48.856;9.088;2023-07-13T12:51:33;98105.03;;;28.40;25.19
42601;BME280;28229;48.856;9.088;2023-07-13T12:54:13;98099.59;;;28.82;26.22
42601;BME280;28229;48.856;9.088;2023-07-13T12:56:41;98108.78;;;28.69;25.84
42601;BME280;28229;48.856;9.088;2023-07-13T12:59:16;98096.66;;;28.33;25.24
42601;BME280;28229;48.856;9.088;2023-07-13T13:01:44;98093.88;;;28.21;25.40
42601;BME280;28229;48.856;9.088;2023-07-13T13:04:12;98100.06;;;28.00;26.31
42601;BME280;28229;48.856;9.088;2023-07-13T13:06:39;98092.97;;;28.17;26.42
42601;BME280;28229;48.856;9.088;2023-07-13T13:09:14;98093.22;;;28.24;25.52
42601;BME280;28229;48.856;9.088;2023-07-13T13:11:41;98084.91;;;28.29;25.66
42601;BME280;28229;48.856;9.088;2023-07-13T13:14:07;98095.56;;;28.46;25.74
42601;BME280;28229;48.856;9.088;2023-07-13T13:16:34;98082.34;;;28.54;25.93
42601;BME280;28229;48.856;9.088;2023-07-13T13:19:14;98086.06;;;28.82;26.36
42601;BME280;28229;48.856;9.088;2023-07-13T13:21:43;98095.31;;;28.81;25.30
42601;BME280;28229;48.856;9.088;2023-07-13T13:24:13;98094.22;;;29.07;25.00
42601;BME280;28229;48.856;9.088;2023-07-13T13:26:40;98090.41;;;29.08;25.07
42601;BME280;28229;48.856;9.088;2023-07-13T13:29:15;98096.44;;;29.26;26.34
42601;BME280;28229;48.856;9.088;2023-07-13T13:31:52;98091.47;;;29.28;25.11
42601;BME280;28229;48.856;9.088;2023-07-13T13:34:22;98089.34;;;29.34;24.71
42601;BME280;28229;48.856;9.088;2023-07-13T13:36:49;98093.78;;;29.05;25.15
42601;BME280;28229;48.856;9.088;2023-07-13T13:39:23;98080.78;;;28.86;26.22
42601;BME280;28229;48.856;9.088;2023-07-13T13:41:52;98083.44;;;28.53;25.77
42601;BME280;28229;48.856;9.088;2023-07-13T13:44:20;98085.84;;;28.33;26.26
42601;BME280;28229;48.856;9.088;2023-07-13T13:46:51;98082.25;;;28.41;26.16
42601;BME280;28229;48.856;9.088;2023-07-13T13:49:23;98076.13;;;28.32;25.61